Time;durP1;ratioP1;P1;durP2;ratioP2;P2;SDS_P1;SDS_P2;PMS_P1;PMS_P2;Temp;Humidity;BMP_temperature;BMP_pressure;BME280_temperature;BME280_humidity;BME280_pressure;Samples;Min_cycle;Max_cycle;Signal;HPM_P1;HPM_P2
2022/08/05 00:00:20;;;;;;;4.82;2.72;;;;;;;19.38;76.23;101382.41;5011417;28;20097;-76
2022/08/05 00:02:46;;;;;;;3.72;2.75;;;;;;;19.38;76.50;101375.34;5012490;28;20033;-77
2022/08/05 00:05:12;;;;;;;4.47;2.63;;;;;;;19.35;76.03;101366.72;5009964;28;20029;-76
2022/08/05 00:07:37;;;;;;;6.43;3.00;;;;;;;19.36;75.90;101358.75;5009481;28;20072;-77
2022/08/05 00:10:03;;;;;;;4.53;2.85;;;;;;;19.35;76.52;101359.69;5011036;28;20021;-77
2022/08/05 00:12:28;;;;;;;6.32;2.92;;;;;;;19.33;76.58;101373.88;5013041;28;20037;-76
2022/08/05 00:14:53;;;;;;;5.57;2.97;;;;;;;19.34;76.62;101372.94;5010172;28;20053;-77
2022/08/05 00:17:19;;;;;;;6.22;3.10;;;;;;;19.36;76.44;101373.72;5013626;28;20100;-78
2022/08/05 00:19:44;;;;;;;7.13;3.10;;;;;;;19.39;76.48;101360.34;5011507;28;20453;-78
2022/08/05 00:22:09;;;;;;;4.88;2.97;;;;;;;19.40;76.67;101357.63;5011352;28;20041;-76
2022/08/05 00:24:35;;;;;;;4.18;2.92;;;;;;;19.40;77.08;101362.06;5012324;28;20496;-77
2022/08/05 00:27:01;;;;;;;4.40;3.10;;;;;;;19.36;76.75;101356.09;5011296;28;20013;-77
2022/08/05 00:29:26;;;;;;;5.47;3.10;;;;;;;19.37;76.73;101364.84;5009535;28;20025;-76
2022/08/05 00:31:52;;;;;;;6.13;3.22;;;;;;;19.32;76.58;101373.03;5013029;28;20065;-77
2022/08/05 00:34:18;;;;;;;5.20;3.30;;;;;;;19.28;76.69;101373.28;5014718;28;20434;-77
2022/08/05 00:36:43;;;;;;;6.28;3.08;;;;;;;19.23;77.04;101371.75;5012048;28;20104;-77
2022/08/05 00:39:08;;;;;;;5.90;3.33;;;;;;;19.23;77.29;101371.75;5013041;28;20045;-76
2022/08/05 00:41:35;;;;;;;5.60;2.90;;;;;;;19.22;77.61;101366.53;5014877;28;20381;-77
2022/08/05 00:44:00;;;;;;;5.18;3.33;;;;;;;19.21;77.55;101357.78;5011201;28;20076;-76
2022/08/05 00:46:25;;;;;;;6.32;3.25;;;;;;;19.22;77.42;101370.03;5014041;28;20724;-76
2022/08/05 00:48:51;;;;;;;3.92;3.10;;;;;;;19.23;77.37;101370.88;5011860;28;20254;-76
2022/08/05 00:51:21;;;;;;;6.10;3.15;;;;;;;19.23;77.62;101366.47;5012023;28;20473;-77
2022/08/05 00:53:47;;;;;;;5.15;3.00;;;;;;;19.24;77.85;101368.16;5015042;28;20033;-77
2022/08/05 00:56:15;;;;;;;5.03;2.92;;;;;;;19.25;77.76;101364.59;5011752;28;20049;-77
2022/08/05 00:58:40;;;;;;;5.88;3.17;;;;;;;19.26;77.80;101370.72;5013048;28;20049;-75
2022/08/05 01:01:06;;;;;;;4.78;3.30;;;;;;;19.24;77.31;101368.16;5021857;28;20122;-76
2022/08/05 01:03:31;;;;;;;6.32;3.00;;;;;;;19.23;77.43;101365.59;5016020;28;20484;-77
2022/08/05 01:05:56;;;;;;;4.93;3.10;;;;;;;19.19;77.30;101354.38;5013687;28;20030;-77
2022/08/05 01:08:22;;;;;;;5.70;3.30;;;;;;;19.18;77.30;101363.22;5013322;28;20030;-73
2022/08/05 01:10:52;;;;;;;6.47;3.10;;;;;;;19.16;77.46;101366.88;5012117;28;20045;-75
2022/08/05 01:13:54;;;;;;;5.22;3.38;;;;;;;19.14;76.53;101366.94;5010814;28;20362;-77
2022/08/05 01:16:27;;;;;;;5.97;2.85;;;;;;;19.13;76.50;101375.78;5010830;28;20026;-73
2022/08/05 01:18:59;;;;;;;5.25;3.28;;;;;;;19.05;76.84;101378.00;5011232;28;20030;-74
2022/08/05 01:21:46;;;;;;;5.07;2.85;;;;;;;19.02;76.63;101378.16;5011830;28;20026;-74
2022/08/05 01:24:34;;;;;;;6.38;3.28;;;;;;;18.98;77.01;101381.88;5013700;28;20034;-73
2022/08/05 01:27:19;;;;;;;4.20;2.78;;;;;;;18.89;77.53;101394.59;5008424;28;20050;-74
2022/08/05 01:29:47;;;;;;;6.55;2.72;;;;;;;18.89;78.20;101406.91;5012443;28;20034;-74
2022/08/05 01:32:17;;;;;;;10.27;2.88;;;;;;;18.87;77.95;101407.00;5011974;28;20073;-74
2022/08/05 01:35:00;;;;;;;6.57;2.92;;;;;;;18.88;76.82;101408.72;5013874;28;20037;-74
2022/08/05 01:37:52;;;;;;;5.85;2.83;;;;;;;18.81;77.41;101417.84;5010602;28;20096;-74
2022/08/05 01:40:21;;;;;;;6.25;2.97;;;;;;;18.76;77.64;101420.72;5011966;28;20036;-74
2022/08/05 01:42:49;;;;;;;6.80;3.05;;;;;;;18.76;77.46;101438.34;5014843;28;20152;-74
2022/08/05 01:45:15;;;;;;;5.03;2.47;;;;;;;18.75;77.91;101448.03;5012805;28;20508;-74
2022/08/05 01:47:43;;;;;;;4.18;2.50;;;;;;;18.76;77.53;101456.78;5009265;28;20160;-74
2022/08/05 01:50:12;;;;;;;7.13;2.78;;;;;;;18.77;77.24;101461.13;5011621;28;20481;-74
2022/08/05 01:52:41;;;;;;;6.93;2.60;;;;;;;18.78;76.47;101454.94;5008481;28;20026;-74
2022/08/05 01:55:09;;;;;;;5.03;2.60;;;;;;;18.80;78.29;101434.59;5010892;28;20389;-73
2022/08/05 01:57:39;;;;;;;5.00;2.67;;;;;;;18.84;78.22;101433.50;5010217;28;20358;-74
2022/08/05 02:00:05;;;;;;;5.28;2.80;;;;;;;18.79;78.32;101427.63;5012393;28;20030;-74
2022/08/05 02:02:35;;;;;;;6.82;2.50;;;;;;;18.74;78.47;101432.28;5010910;28;20030;-74
2022/08/05 02:05:05;;;;;;;5.15;2.53;;;;;;;18.73;78.59;101428.78;5014361;28;20448;-74
2022/08/05 02:07:32;;;;;;;6.78;2.78;;;;;;;18.72;78.85;101429.72;5016247;28;20018;-74
2022/08/05 02:09:58;;;;;;;5.25;2.40;;;;;;;18.75;79.27;101426.09;5012353;28;20025;-74
2022/08/05 02:12:33;;;;;;;4.18;2.60;;;;;;;18.76;79.50;101419.88;5010809;28;20025;-74
2022/08/05 02:15:05;;;;;;;4.47;2.50;;;;;;;18.76;78.96;101404.06;5011940;28;20033;-74
2022/08/05 02:17:37;;;;;;;4.25;2.63;;;;;;;18.75;79.08;101387.41;5013508;28;20022;-74
2022/08/05 02:20:08;;;;;;;5.60;2.47;;;;;;;18.73;79.10;101377.88;5011616;28;20041;-74
2022/08/05 02:22:45;;;;;;;4.57;2.63;;;;;;;18.73;78.31;101383.97;5014054;28;20489;-73
2022/08/05 02:25:16;;;;;;;4.97;2.55;;;;;;;18.70;78.80;101388.56;5012213;28;20037;-74
2022/08/05 02:27:42;;;;;;;4.25;2.47;;;;;;;18.70;78.29;101393.84;5011441;28;20017;-74
2022/08/05 02:30:10;;;;;;;5.35;2.58;;;;;;;18.69;78.73;101413.22;5013832;28;20034;-74
2022/08/05 02:32:37;;;;;;;5.10;2.60;;;;;;;18.64;78.72;101419.56;5013390;28;20041;-74
2022/08/05 02:35:07;;;;;;;5.32;2.80;;;;;;;18.63;78.81;101406.47;5013334;28;20026;-74
2022/08/05 02:37:33;;;;;;;4.10;2.72;;;;;;;18.62;79.14;101388.97;5010254;28;20060;-74
2022/08/05 02:40:01;;;;;;;4.00;2.38;;;;;;;18.62;79.17;101397.69;5012405;28;20025;-74
2022/08/05 02:42:27;;;;;;;5.22;2.60;;;;;;;18.64;79.70;101416.94;5013670;28;20036;-73
2022/08/05 02:44:55;;;;;;;9.52;3.00;;;;;;;18.64;79.24;101411.66;5011362;28;20030;-74
2022/08/05 02:47:21;;;;;;;3.80;2.70;;;;;;;18.64;79.41;101416.94;5009603;28;20033;-74
2022/08/05 02:49:47;;;;;;;7.43;2.80;;;;;;;18.63;79.59;101425.75;5009007;28;20048;-74
2022/08/05 02:52:16;;;;;;;5.82;2.95;;;;;;;18.61;78.92;101438.19;5010994;28;20029;-73
2022/08/05 02:54:43;;;;;;;4.07;2.38;;;;;;;18.61;79.55;101438.19;5014172;28;20428;-73
2022/08/05 02:57:14;;;;;;;6.45;2.97;;;;;;;18.60;79.17;101431.22;5011375;28;20060;-73
2022/08/05 02:59:45;;;;;;;4.90;2.67;;;;;;;18.61;79.15;101422.38;5012337;28;20037;-73
2022/08/05 03:02:12;;;;;;;5.93;2.63;;;;;;;18.59;79.61;101413.69;5010968;28;20296;-74
2022/08/05 03:04:39;;;;;;;5.82;2.92;;;;;;;18.56;79.26;101397.16;5010969;28;20080;-73
2022/08/05 03:07:05;;;;;;;5.00;2.78;;;;;;;18.52;79.10;101388.56;5011699;28;20114;-74
2022/08/05 03:09:31;;;;;;;5.55;2.90;;;;;;;18.52;79.07;101385.09;5010337;28;20040;-74
2022/08/05 03:11:56;;;;;;;7.57;3.20;;;;;;;18.50;79.30;101385.16;5023893;28;20120;-74
2022/08/05 03:14:21;;;;;;;6.78;3.08;;;;;;;18.48;79.17;101379.13;5010432;28;20021;-73
2022/08/05 03:16:46;;;;;;;6.60;2.90;;;;;;;18.46;79.74;101373.06;5009381;28;20092;-74
2022/08/05 03:19:12;;;;;;;6.15;3.00;;;;;;;18.44;79.56;101373.16;5010949;28;20052;-74
2022/08/05 03:21:37;;;;;;;5.05;2.97;;;;;;;18.44;79.39;101380.22;5023374;28;20722;-74
2022/08/05 03:24:03;;;;;;;6.38;3.03;;;;;;;18.44;80.00;101393.41;5007051;28;20094;-73
2022/08/05 03:26:28;;;;;;;6.70;2.92;;;;;;;18.42;79.76;101392.63;5010863;28;20048;-73
2022/08/05 03:28:54;;;;;;;6.18;3.20;;;;;;;18.43;79.52;101402.22;5010713;28;20383;-74
2022/08/05 03:31:20;;;;;;;6.40;2.85;;;;;;;18.42;79.87;101411.91;5011207;28;20465;-73
2022/08/05 03:33:46;;;;;;;5.93;2.92;;;;;;;18.39;79.12;101405.94;5010371;28;20034;-73
2022/08/05 03:36:11;;;;;;;5.10;3.10;;;;;;;18.40;79.87;101397.94;5009325;28;20096;-73
2022/08/05 03:38:40;;;;;;;7.10;3.15;;;;;;;18.41;79.61;101404.09;5009828;28;20041;-74
2022/08/05 03:41:06;;;;;;;5.10;3.20;;;;;;;18.39;78.83;101409.41;5008584;28;20503;-74
2022/08/05 03:43:31;;;;;;;4.85;3.13;;;;;;;18.37;79.24;101408.63;5009419;28;20034;-73
2022/08/05 03:45:56;;;;;;;5.97;2.88;;;;;;;18.37;79.24;101418.31;5012695;28;20065;-74
2022/08/05 03:48:22;;;;;;;4.05;2.80;;;;;;;18.35;78.74;101421.88;5011065;28;20030;-74
2022/08/05 03:50:52;;;;;;;5.93;3.47;;;;;;;18.32;78.86;101424.66;5009800;28;20049;-74
2022/08/05 03:53:30;;;;;;;4.95;2.95;;;;;;;18.29;78.65;101432.72;5009669;28;20116;-75
2022/08/05 03:56:14;;;;;;;4.63;2.85;;;;;;;18.30;78.81;101423.88;5010188;28;20029;-73
2022/08/05 03:58:43;;;;;;;5.25;2.95;;;;;;;18.31;80.59;101415.06;5008238;28;20115;-72
2022/08/05 04:01:10;;;;;;;8.57;3.10;;;;;;;18.32;80.40;101408.88;5005884;28;20026;-75
2022/08/05 04:03:37;;;;;;;5.10;2.95;;;;;;;18.31;80.41;101404.53;5010351;28;20025;-73
2022/08/05 04:06:04;;;;;;;6.50;3.10;;;;;;;18.28;79.96;101394.13;5010376;28;20798;-75
2022/08/05 04:08:31;;;;;;;6.72;3.13;;;;;;;18.27;80.62;101384.56;5005438;28;20057;-73
2022/08/05 04:10:58;;;;;;;6.20;3.13;;;;;;;18.25;79.69;101383.78;5007947;28;20119;-73
2022/08/05 04:13:25;;;;;;;4.78;3.05;;;;;;;18.25;80.05;101389.03;5006145;28;20065;-73
2022/08/05 04:15:50;;;;;;;4.60;2.92;;;;;;;18.24;80.58;101397.88;5006943;28;20032;-74
2022/08/05 04:18:16;;;;;;;5.90;3.00;;;;;;;18.25;80.10;101404.84;5005381;28;20021;-73
2022/08/05 04:20:41;;;;;;;5.82;3.00;;;;;;;18.29;79.61;101411.63;5006239;28;20040;-73
2022/08/05 04:23:08;;;;;;;4.47;3.08;;;;;;;18.30;79.73;101413.34;5007657;28;20393;-75
2022/08/05 04:25:34;;;;;;;6.00;2.85;;;;;;;18.32;79.69;101415.94;5006482;28;20642;-73
2022/08/05 04:27:59;;;;;;;4.47;3.08;;;;;;;18.33;80.22;101412.38;5007670;28;20466;-73
2022/08/05 04:30:24;;;;;;;6.55;3.10;;;;;;;18.37;80.38;101419.16;5005645;28;20060;-73
2022/08/05 04:32:50;;;;;;;5.68;3.35;;;;;;;18.35;80.27;101421.03;5007147;28;20029;-73
2022/08/05 04:35:15;;;;;;;4.80;3.00;;;;;;;18.33;80.82;101422.91;5009799;28;20484;-73
2022/08/05 04:37:40;;;;;;;5.57;3.38;;;;;;;18.31;80.24;101416.84;5007455;28;20119;-73
2022/08/05 04:40:06;;;;;;;5.97;3.65;;;;;;;18.31;80.04;101417.69;5007564;28;20045;-73
2022/08/05 04:42:31;;;;;;;4.82;3.13;;;;;;;18.27;80.62;101413.53;5009460;28;20029;-73
2022/08/05 04:44:57;;;;;;;5.15;2.95;;;;;;;18.28;81.18;101415.19;5007183;28;21822;-73
2022/08/05 04:47:22;;;;;;;7.50;3.58;;;;;;;18.26;80.81;101419.72;5012455;28;20071;-73
2022/08/05 04:49:47;;;;;;;7.75;3.53;;;;;;;18.26;80.85;101427.63;5010135;28;20029;-76
2022/08/05 04:52:13;;;;;;;6.40;3.47;;;;;;;18.26;80.63;101427.63;5010137;28;20050;-73
2022/08/05 04:54:38;;;;;;;5.95;3.33;;;;;;;18.25;80.96;101433.81;5011112;28;20482;-76
2022/08/05 04:57:03;;;;;;;7.65;3.30;;;;;;;18.28;81.16;101430.16;5011409;28;20022;-74
2022/08/05 04:59:29;;;;;;;5.25;3.45;;;;;;;18.28;80.63;101431.00;5011856;28;20040;-73
2022/08/05 05:01:54;;;;;;;5.78;3.30;;;;;;;18.28;80.84;101425.72;5007987;28;20087;-74
2022/08/05 05:04:19;;;;;;;5.95;3.50;;;;;;;18.30;81.00;101423.03;5007873;28;20508;-74
2022/08/05 05:06:45;;;;;;;5.40;3.33;;;;;;;18.30;80.63;101434.41;5010093;28;20030;-74
2022/08/05 05:09:13;;;;;;;6.63;3.35;;;;;;;18.29;80.37;101431.88;5010635;28;20389;-73
2022/08/05 05:11:38;;;;;;;5.00;3.40;;;;;;;18.27;81.14;101429.31;5010731;28;20021;-73
2022/08/05 05:14:03;;;;;;;5.47;3.40;;;;;;;18.29;80.69;101430.06;5008887;28;20041;-73
2022/08/05 05:16:29;;;;;;;5.13;3.45;;;;;;;18.31;80.88;101424.75;5012870;28;20038;-74
2022/08/05 05:18:54;;;;;;;9.38;3.80;;;;;;;18.32;80.77;101429.09;5010650;28;20528;-73
2022/08/05 05:21:20;;;;;;;5.35;3.85;;;;;;;18.32;80.40;101414.13;5014042;28;20083;-73
2022/08/05 05:23:45;;;;;;;7.95;3.50;;;;;;;18.34;80.74;101420.19;5012241;28;20511;-74
2022/08/05 05:26:10;;;;;;;6.78;3.53;;;;;;;18.35;80.61;101421.88;5012860;28;20160;-74
2022/08/05 05:28:36;;;;;;;8.27;3.67;;;;;;;18.38;80.34;101435.84;5013304;28;20041;-74
2022/08/05 05:31:01;;;;;;;8.05;3.97;;;;;;;18.39;80.40;101438.38;5013096;28;20358;-74
2022/08/05 05:33:26;;;;;;;9.00;3.80;;;;;;;18.41;80.82;101441.81;5012630;28;20037;-74
2022/08/05 05:35:51;;;;;;;6.47;3.60;;;;;;;18.42;80.21;101442.66;5012230;28;20046;-74
2022/08/05 05:38:17;;;;;;;4.45;3.50;;;;;;;18.41;80.33;101443.59;5013182;28;20034;-74
2022/08/05 05:40:42;;;;;;;7.82;3.70;;;;;;;18.39;80.14;101442.81;5012063;28;20512;-74
2022/08/05 05:43:08;;;;;;;4.82;3.47;;;;;;;18.37;79.68;101444.66;5019732;28;20474;-73
2022/08/05 05:45:33;;;;;;;8.50;3.80;;;;;;;18.36;79.83;101449.06;5013289;28;20037;-73
2022/08/05 05:47:59;;;;;;;6.70;3.63;;;;;;;18.33;80.22;101450.09;5013109;28;20029;-73
2022/08/05 05:50:24;;;;;;;5.78;3.53;;;;;;;18.33;80.74;101452.72;5011856;28;20481;-73
2022/08/05 05:52:50;;;;;;;5.00;3.90;;;;;;;18.31;80.69;101451.94;5012266;28;20682;-73
2022/08/05 05:55:16;;;;;;;6.25;3.60;;;;;;;18.29;80.81;101455.56;5011897;28;20034;-74
2022/08/05 05:57:43;;;;;;;6.43;3.30;;;;;;;18.25;80.02;101460.16;5011498;28;20437;-74
2022/08/05 06:00:11;;;;;;;5.85;3.50;;;;;;;18.22;80.20;101462.06;5011258;28;20701;-74
2022/08/05 06:02:36;;;;;;;8.77;3.80;;;;;;;18.19;80.29;101470.97;5011488;28;20424;-74
2022/08/05 06:05:02;;;;;;;5.43;3.25;;;;;;;18.18;79.92;101467.50;5010510;28;20030;-74
2022/08/05 06:07:27;;;;;;;4.65;3.13;;;;;;;18.19;79.02;101474.44;5010993;28;20022;-74
2022/08/05 06:09:53;;;;;;;6.50;3.10;;;;;;;18.13;79.45;101463.34;5012167;28;20485;-74
2022/08/05 06:12:18;;;;;;;5.25;3.17;;;;;;;18.11;79.47;101470.47;5009041;28;20025;-74
2022/08/05 06:14:43;;;;;;;4.53;2.67;;;;;;;18.04;79.74;101470.78;5010991;28;20058;-74
2022/08/05 06:17:10;;;;;;;5.35;2.97;;;;;;;18.03;80.49;101479.59;5011014;28;21642;-73
2022/08/05 06:19:35;;;;;;;5.95;3.08;;;;;;;18.03;80.29;101476.97;5010951;28;20034;-74
2022/08/05 06:22:05;;;;;;;6.43;3.10;;;;;;;18.08;80.83;101470.63;5010410;28;20033;-73
2022/08/05 06:24:31;;;;;;;5.53;2.97;;;;;;;18.12;80.52;101477.44;5008723;28;20420;-73
2022/08/05 06:26:57;;;;;;;6.70;3.13;;;;;;;18.12;80.73;101477.44;5009729;28;20525;-74
2022/08/05 06:29:22;;;;;;;6.35;3.30;;;;;;;18.16;80.22;101479.00;5009873;28;20167;-74
2022/08/05 06:31:48;;;;;;;6.28;3.47;;;;;;;18.17;79.34;101483.34;5008203;28;20032;-73
2022/08/05 06:34:13;;;;;;;5.47;3.40;;;;;;;18.18;80.53;101482.44;5010428;28;20048;-74
2022/08/05 06:36:38;;;;;;;5.65;3.20;;;;;;;18.19;80.43;101484.97;5007868;28;20042;-73
2022/08/05 06:39:03;;;;;;;7.03;3.72;;;;;;;18.23;80.22;101483.06;5008836;28;20354;-73
2022/08/05 06:41:29;;;;;;;8.40;3.72;;;;;;;18.25;80.40;101481.22;5011259;28;20078;-74
2022/08/05 06:43:54;;;;;;;6.25;3.97;;;;;;;18.31;80.44;101486.19;5009768;28;20026;-74
2022/08/05 06:46:19;;;;;;;6.45;3.92;;;;;;;18.37;79.87;101481.53;5012241;28;20026;-74
2022/08/05 06:48:45;;;;;;;5.63;3.78;;;;;;;18.44;80.94;101501.41;5007036;28;20393;-74
2022/08/05 06:51:10;;;;;;;6.82;3.78;;;;;;;18.50;80.61;101501.09;5010018;28;20030;-73
2022/08/05 06:53:35;;;;;;;7.43;4.03;;;;;;;18.55;80.62;101496.47;5008927;28;20037;-73
2022/08/05 06:56:04;;;;;;;6.70;3.95;;;;;;;18.63;80.16;101512.72;5010463;28;20021;-74
2022/08/05 06:58:30;;;;;;;8.02;3.90;;;;;;;18.63;78.65;101507.47;5009302;28;20078;-73
2022/08/05 07:01:01;;;;;;;6.43;3.90;;;;;;;18.64;80.38;101508.34;5010786;28;20497;-74
2022/08/05 07:03:28;;;;;;;6.70;3.88;;;;;;;18.70;79.65;101504.53;5010236;28;20041;-73
2022/08/05 07:05:54;;;;;;;7.05;3.85;;;;;;;18.75;80.02;101508.63;5009800;28;20021;-73
2022/08/05 07:08:21;;;;;;;9.07;3.85;;;;;;;18.75;77.62;101513.91;5008536;28;20112;-73
2022/08/05 07:10:47;;;;;;;5.97;3.72;;;;;;;18.79;77.99;101525.16;5008900;28;20026;-73
2022/08/05 07:18:40;;;;;;;5.88;3.15;;;;;;;18.87;77.83;101538.81;5007426;28;20033;-74
2022/08/05 07:21:06;;;;;;;5.90;2.90;;;;;;;18.92;78.78;101536.81;5008766;28;20033;-74
2022/08/05 07:23:31;;;;;;;8.05;3.50;;;;;;;18.97;76.37;101547.16;5011830;28;20029;-74
2022/08/05 07:25:57;;;;;;;6.78;3.38;;;;;;;18.99;75.99;101541.78;5008624;28;20025;-74
2022/08/05 07:28:23;;;;;;;6.55;3.45;;;;;;;19.04;75.92;101537.16;5009266;28;20030;-74
2022/08/05 07:30:49;;;;;;;7.15;3.05;;;;;;;19.08;76.40;101538.72;5010784;28;20085;-74
2022/08/05 07:33:14;;;;;;;5.50;2.83;;;;;;;19.13;77.20;101549.84;5012447;28;20033;-74
2022/08/05 07:35:40;;;;;;;5.93;3.13;;;;;;;19.17;74.63;101540.88;5010964;28;20037;-74
2022/08/05 07:38:05;;;;;;;3.78;3.08;;;;;;;19.19;76.88;101543.44;5008296;28;20027;-73
2022/08/05 07:40:30;;;;;;;7.97;3.83;;;;;;;19.20;74.79;101548.63;5009976;28;20033;-73
2022/08/05 07:42:56;;;;;;;4.97;2.80;;;;;;;19.23;75.26;101551.13;5011449;28;20042;-73
2022/08/05 07:45:21;;;;;;;7.43;3.03;;;;;;;19.22;73.29;101549.41;5010457;28;20025;-73
2022/08/05 07:47:47;;;;;;;10.38;3.15;;;;;;;19.30;75.39;101550.81;5007441;28;20452;-73
2022/08/05 07:50:12;;;;;;;5.85;2.65;;;;;;;19.38;75.68;101548.63;5006306;28;20424;-73
2022/08/05 07:52:39;;;;;;;7.15;3.30;;;;;;;19.46;73.56;101564.06;5009398;28;20034;-73
2022/08/05 07:55:05;;;;;;;4.30;2.22;;;;;;;19.47;72.66;101563.97;5008083;28;20401;-73
2022/08/05 07:57:30;;;;;;;6.53;2.80;;;;;;;19.44;72.77;101564.16;5010075;28;20068;-73
2022/08/05 07:59:56;;;;;;;4.63;2.60;;;;;;;19.45;73.16;101570.25;5006439;28;20473;-73
2022/08/05 08:02:26;;;;;;;4.90;2.53;;;;;;;19.37;69.96;101574.16;5009747;28;20112;-73
2022/08/05 08:04:51;;;;;;;3.92;2.70;;;;;;;19.30;69.50;101571.91;5011161;28;20141;-73
2022/08/05 08:07:17;;;;;;;3.33;2.38;;;;;;;19.31;72.41;101569.19;5009567;28;20439;-73
2022/08/05 08:09:42;;;;;;;4.25;2.08;;;;;;;19.36;73.06;101572.47;5008386;28;20462;-73
2022/08/05 08:12:08;;;;;;;3.30;2.13;;;;;;;19.40;69.36;101576.63;5007372;28;20033;-73
2022/08/05 08:14:33;;;;;;;3.30;1.75;;;;;;;19.49;71.09;101574.47;5008525;28;20037;-72
2022/08/05 08:16:59;;;;;;;5.05;2.03;;;;;;;19.61;71.33;101576.44;5010307;28;20363;-73
2022/08/05 08:19:24;;;;;;;2.78;2.08;;;;;;;19.71;70.27;101582.09;5009944;28;20088;-73
2022/08/05 08:21:49;;;;;;;2.75;1.60;;;;;;;19.77;69.06;101581.78;5010616;28;20769;-73
2022/08/05 08:24:14;;;;;;;2.20;1.42;;;;;;;19.85;68.62;101584.03;5016031;28;20032;-73
2022/08/05 08:26:40;;;;;;;3.13;1.70;;;;;;;19.89;65.88;101590.00;5013326;28;20076;-73
2022/08/05 08:29:05;;;;;;;2.65;1.65;;;;;;;19.96;66.79;101596.69;5011234;28;20034;-73
2022/08/05 08:31:30;;;;;;;3.83;1.60;;;;;;;20.00;66.92;101596.44;5015038;28;20052;-73
2022/08/05 08:33:55;;;;;;;2.95;1.45;;;;;;;20.09;64.09;101596.84;5012488;28;20022;-73
2022/08/05 08:36:21;;;;;;;3.38;1.45;;;;;;;20.16;64.99;101599.09;5010882;28;20066;-73
2022/08/05 08:38:46;;;;;;;3.10;1.17;;;;;;;20.26;65.27;101603.88;5011345;28;20026;-72
2022/08/05 08:41:14;;;;;;;2.70;1.33;;;;;;;20.30;64.68;101606.25;5009466;28;20025;-73
2022/08/05 08:43:40;;;;;;;2.47;1.30;;;;;;;20.30;64.70;101611.56;5021055;28;20025;-73
2022/08/05 08:46:06;;;;;;;3.58;1.40;;;;;;;20.29;63.15;101624.84;5013408;28;20041;-72
2022/08/05 08:48:33;;;;;;;3.78;1.60;;;;;;;20.26;61.15;101622.38;5009627;28;20485;-73
2022/08/05 08:50:59;;;;;;;3.28;1.40;;;;;;;20.22;64.27;101626.13;5009676;28;20030;-73
2022/08/05 08:53:26;;;;;;;2.83;1.40;;;;;;;20.23;65.00;101633.09;5013109;28;20032;-73
2022/08/05 08:55:52;;;;;;;3.38;1.30;;;;;;;20.22;64.94;101629.63;5010167;28;20034;-73
2022/08/05 08:58:19;;;;;;;3.55;1.20;;;;;;;20.21;64.62;101627.03;5010027;28;20373;-73
2022/08/05 09:00:46;;;;;;;3.28;1.35;;;;;;;20.19;65.12;101639.47;5012967;28;20508;-73
2022/08/05 09:03:11;;;;;;;3.83;1.67;;;;;;;20.14;63.49;101640.59;5005771;28;20377;-73
2022/08/05 09:05:36;;;;;;;4.22;1.70;;;;;;;20.19;63.08;101650.06;5007440;28;20026;-73
2022/08/05 09:08:02;;;;;;;3.97;1.60;;;;;;;20.22;62.13;101649.91;5005432;28;20377;-73
2022/08/05 09:10:27;;;;;;;3.47;1.50;;;;;;;20.28;64.72;101642.47;5009580;28;20033;-74
2022/08/05 09:12:53;;;;;;;3.13;1.65;;;;;;;20.40;63.46;101642.78;5006900;28;20021;-73
2022/08/05 09:15:18;;;;;;;4.00;1.50;;;;;;;20.52;64.43;101651.78;5007837;28;20071;-73
2022/08/05 09:17:43;;;;;;;3.88;1.48;;;;;;;20.61;62.04;101649.50;5008613;28;20033;-73
2022/08/05 09:20:11;;;;;;;3.30;1.60;;;;;;;20.70;63.06;101653.41;5013832;28;20042;-73
2022/08/05 09:23:04;;;;;;;3.65;1.60;;;;;;;20.76;63.00;101655.78;5007859;28;20025;-73
2022/08/05 09:25:30;;;;;;;2.97;1.55;;;;;;;20.75;61.62;101659.34;5013121;28;20600;-74
2022/08/05 09:28:04;;;;;;;2.83;1.52;;;;;;;20.83;62.31;101660.72;5012613;28;20030;-74
2022/08/05 09:30:29;;;;;;;4.25;1.50;;;;;;;20.92;60.52;101660.19;5009303;28;20069;-74
2022/08/05 09:33:00;;;;;;;4.38;1.80;;;;;;;21.05;61.79;101666.47;5006972;28;20073;-73
2022/08/05 09:35:25;;;;;;;4.28;1.98;;;;;;;21.11;59.81;101669.72;5010614;28;20033;-73
2022/08/05 09:37:53;;;;;;;2.65;1.60;;;;;;;21.11;61.25;101670.56;5013054;28;20053;-74
2022/08/05 09:40:39;;;;;;;3.17;1.58;;;;;;;21.10;61.14;101665.38;5010151;28;20109;-74
2022/08/05 09:43:06;;;;;;;4.78;1.52;;;;;;;20.94;60.93;101679.47;5004160;28;20117;-73
2022/08/05 09:45:37;;;;;;;2.30;1.40;;;;;;;20.69;61.37;101686.09;5011012;28;20030;-73
2022/08/05 09:48:27;;;;;;;4.28;1.38;;;;;;;20.49;62.42;101678.44;5011912;28;20096;-73
2022/08/05 09:51:00;;;;;;;2.53;1.20;;;;;;;20.28;60.34;101687.41;5004905;28;20053;-73
2022/08/05 09:53:25;;;;;;;3.75;1.35;;;;;;;20.17;60.48;101689.78;5008515;28;20867;-73
2022/08/05 09:55:57;;;;;;;5.05;1.20;;;;;;;20.15;61.33;101692.47;5009582;28;20713;-73
2022/08/05 09:58:23;;;;;;;4.03;1.20;;;;;;;20.08;60.62;101691.13;5011143;28;20507;-74
2022/08/05 10:01:00;;;;;;;3.63;1.30;;;;;;;20.07;61.61;101689.41;5010479;28;20044;-75
2022/08/05 10:03:27;;;;;;;2.92;1.20;;;;;;;20.08;60.87;101691.13;5011593;28;20469;-74
2022/08/05 10:06:21;;;;;;;4.78;1.20;;;;;;;20.22;62.13;101702.72;5009244;28;20133;-74
2022/08/05 10:08:47;;;;;;;3.50;1.23;;;;;;;20.25;59.13;101702.56;5004618;28;20053;-73
2022/08/05 10:11:15;;;;;;;3.30;1.33;;;;;;;20.33;58.70;101705.66;5007875;28;20026;-73
2022/08/05 10:13:40;;;;;;;2.55;1.25;;;;;;;20.40;58.78;101701.75;5006489;28;20488;-73
2022/08/05 10:16:26;;;;;;;2.60;1.40;;;;;;;20.53;59.60;101707.25;5008972;28;20136;-73
2022/08/05 10:18:52;;;;;;;1.60;1.17;;;;;;;20.63;56.16;101697.03;5011871;28;20033;-74
2022/08/05 10:21:17;;;;;;;2.38;1.23;;;;;;;20.66;56.40;101704.78;5010672;28;20158;-74
2022/08/05 10:23:44;;;;;;;1.48;1.23;;;;;;;20.67;56.21;101695.91;5005317;28;20070;-72
2022/08/05 10:26:12;;;;;;;2.90;1.30;;;;;;;20.75;57.75;101696.38;5008065;28;20034;-73
2022/08/05 10:28:39;;;;;;;2.80;1.20;;;;;;;20.87;56.19;101696.63;5021826;28;20367;-73
2022/08/05 10:31:04;;;;;;;2.15;1.10;;;;;;;20.98;58.65;101694.25;5010470;28;20112;-73
2022/08/05 10:33:32;;;;;;;3.30;1.20;;;;;;;21.04;58.35;101700.97;5006243;28;20138;-74
2022/08/05 10:35:58;;;;;;;2.45;1.08;;;;;;;21.07;56.08;101708.75;5008288;28;20046;-73
2022/08/05 10:38:26;;;;;;;1.92;1.00;;;;;;;21.10;56.78;101703.25;5006936;28;20075;-73
2022/08/05 10:40:57;;;;;;;1.88;1.00;;;;;;;21.12;54.91;101704.03;5011445;28;20033;-73
2022/08/05 10:43:35;;;;;;;1.92;0.80;;;;;;;21.25;55.76;101709.47;5009869;28;20033;-73
2022/08/05 10:46:10;;;;;;;2.90;0.80;;;;;;;21.37;52.74;101719.34;5010673;28;20053;-74
2022/08/05 10:48:46;;;;;;;2.53;0.80;;;;;;;21.51;51.27;101712.44;5008313;28;20079;-73
2022/08/05 10:51:14;;;;;;;1.73;0.70;;;;;;;21.57;49.67;101714.69;5010732;28;20029;-74
2022/08/05 10:53:51;;;;;;;1.13;0.68;;;;;;;21.63;50.55;101717.03;5005279;28;20128;-74
2022/08/05 10:56:22;;;;;;;0.85;0.57;;;;;;;21.72;51.83;101722.72;5004512;28;20022;-73
2022/08/05 10:58:51;;;;;;;1.33;0.70;;;;;;;21.85;51.20;101728.13;5008839;28;20117;-74
2022/08/05 11:01:26;;;;;;;1.35;0.70;;;;;;;21.92;50.93;101724.19;5008262;28;20109;-73
2022/08/05 11:04:21;;;;;;;4.22;0.75;;;;;;;21.90;51.28;101731.38;5008943;28;20212;-73
2022/08/05 11:07:05;;;;;;;1.73;0.60;;;;;;;21.83;48.69;101726.44;5005506;28;20034;-73
2022/08/05 11:09:42;;;;;;;1.25;0.60;;;;;;;21.74;48.40;101734.06;5009838;28;20100;-73
2022/08/05 11:12:44;;;;;;;1.75;0.60;;;;;;;21.73;49.03;101735.00;5011435;28;20058;-73
2022/08/05 11:15:17;;;;;;;1.63;0.60;;;;;;;21.71;48.29;101742.19;5003902;28;20030;-73
2022/08/05 11:17:51;;;;;;;1.75;0.50;;;;;;;21.74;47.66;101740.22;5009343;28;20083;-73
2022/08/05 11:20:36;;;;;;;0.50;0.40;;;;;;;21.81;48.19;101738.06;5010011;28;20034;-74
2022/08/05 11:23:24;;;;;;;2.10;0.60;;;;;;;21.89;49.47;101740.28;5008305;28;20033;-73
2022/08/05 11:26:22;;;;;;;1.35;0.47;;;;;;;21.91;48.84;101744.50;5009496;28;20104;-73
2022/08/05 11:28:51;;;;;;;1.08;0.43;;;;;;;21.94;47.11;101744.34;5011726;28;20453;-74
2022/08/05 11:31:16;;;;;;;2.65;0.73;;;;;;;21.93;46.67;101755.88;5013150;28;20408;-74
2022/08/05 11:33:44;;;;;;;0.63;0.50;;;;;;;21.91;46.17;101752.47;5007917;28;20036;-73